This is the latest recevied weather packets stored in our database for station/object IN3MWE-10. If no packets are shown the sender has not sent any weather packets the latest 10 day(s).
| Time | Temp. | Humidity | Pressure | Rain* | Wind** | Luminosity | Snow |
|---|---|---|---|---|---|---|---|
| 1787772924 | 25° C | 79% | 981 hPa | - | - | - | - |
| 1787772024 | 25° C | 80% | 980.8 hPa | - | - | - | - |
| 1787771123 | 25° C | 81% | 980.5 hPa | - | - | - | - |
| 1787770223 | 25° C | 80% | 980.3 hPa | - | - | - | - |
| 1787769323 | 25° C | 83% | 980.3 hPa | - | - | - | - |
| 1787768423 | 25° C | 80% | 980.3 hPa | - | - | - | - |
| 1787767523 | 25.56° C | 77% | 980 hPa | - | - | - | - |
| 1787766623 | 26.11° C | 78% | 979.9 hPa | - | - | - | - |
| 1787765723 | 26.11° C | 77% | 979.6 hPa | - | - | - | - |
| 1787764822 | 27.22° C | 72% | 979.2 hPa | - | - | - | - |
| 1787763922 | 27.22° C | 71% | 979 hPa | - | - | - | - |
| 1787763022 | 27.78° C | 69% | 979.1 hPa | - | - | - | - |
| 1787762122 | 28.89° C | 60% | 979.1 hPa | - | - | - | - |
| 1787761222 | 28.89° C | 56% | 979 hPa | - | - | - | - |
| 1787760322 | 30° C | 52% | 979 hPa | - | - | - | - |
| 1787759422 | 31.67° C | 47% | 978.8 hPa | - | - | - | - |
| 1787758522 | 34.44° C | 44% | 978.6 hPa | - | - | - | - |
| 1787757621 | 31.67° C | 52% | 978.7 hPa | - | - | - | - |
| 1787756721 | 31.67° C | 48% | 978.8 hPa | - | - | - | - |
| 1787755821 | 32.22° C | 43% | 978.8 hPa | - | - | - | - |
| 1787754921 | 32.22° C | 43% | 978.8 hPa | - | - | - | - |
| 1787754021 | 38.33° C | 26% | 978.9 hPa | - | - | - | - |
| 1787753121 | 38.89° C | 24% | 979 hPa | - | - | - | - |
| 1787752221 | 36.67° C | 30% | 979.4 hPa | - | - | - | - |
| 1787751320 | 37.22° C | 28% | 979.6 hPa | - | - | - | - |
* Rain since midnight (hover to see other rain measurements)
** Current wind speed in m/s (hover to see current wind gust speed)